sensor_id;sensor_type;location;lat;lon;timestamp;temperature;humidity
38726;DHT22;24474;48.906;8.808;2023-09-19T00:00:31;17.80;99.90
38726;DHT22;24474;48.906;8.808;2023-09-19T00:03:01;17.70;99.90
38726;DHT22;24474;48.906;8.808;2023-09-19T00:05:27;17.80;99.90
38726;DHT22;24474;48.906;8.808;2023-09-19T00:07:55;17.70;99.90
38726;DHT22;24474;48.906;8.808;2023-09-19T00:10:22;17.70;99.90
38726;DHT22;24474;48.906;8.808;2023-09-19T00:12:51;17.70;99.90
38726;DHT22;24474;48.906;8.808;2023-09-19T00:15:19;17.60;99.90
38726;DHT22;24474;48.906;8.808;2023-09-19T00:17:46;17.70;99.90
38726;DHT22;24474;48.906;8.808;2023-09-19T00:20:14;17.60;99.90
38726;DHT22;24474;48.906;8.808;2023-09-19T00:22:44;17.60;99.90
38726;DHT22;24474;48.906;8.808;2023-09-19T00:25:10;17.60;99.90
38726;DHT22;24474;48.906;8.808;2023-09-19T00:27:38;17.60;99.90
38726;DHT22;24474;48.906;8.808;2023-09-19T00:30:09;17.60;99.90
38726;DHT22;24474;48.906;8.808;2023-09-19T00:32:50;17.60;99.90
38726;DHT22;24474;48.906;8.808;2023-09-19T00:35:24;17.60;99.90
38726;DHT22;24474;48.906;8.808;2023-09-19T00:37:51;17.60;99.90
38726;DHT22;24474;48.906;8.808;2023-09-19T00:40:17;17.60;99.90
38726;DHT22;24474;48.906;8.808;2023-09-19T00:42:46;17.60;99.90
38726;DHT22;24474;48.906;8.808;2023-09-19T00:45:14;17.60;99.90
38726;DHT22;24474;48.906;8.808;2023-09-19T00:47:45;17.50;99.90
38726;DHT22;24474;48.906;8.808;2023-09-19T00:50:14;17.50;99.90
38726;DHT22;24474;48.906;8.808;2023-09-19T00:52:42;17.50;99.90
38726;DHT22;24474;48.906;8.808;2023-09-19T00:55:09;17.50;99.90
38726;DHT22;24474;48.906;8.808;2023-09-19T00:57:38;17.50;99.90
38726;DHT22;24474;48.906;8.808;2023-09-19T01:00:05;17.50;99.90
38726;DHT22;24474;48.906;8.808;2023-09-19T01:02:34;17.50;99.90
38726;DHT22;24474;48.906;8.808;2023-09-19T01:05:00;17.50;99.90
38726;DHT22;24474;48.906;8.808;2023-09-19T01:07:27;17.50;99.90
38726;DHT22;24474;48.906;8.808;2023-09-19T01:09:57;17.50;99.90
38726;DHT22;24474;48.906;8.808;2023-09-19T01:29:48;17.40;99.90
38726;DHT22;24474;48.906;8.808;2023-09-19T01:32:19;17.40;99.90
38726;DHT22;24474;48.906;8.808;2023-09-19T01:34:55;17.40;99.90
38726;DHT22;24474;48.906;8.808;2023-09-19T01:37:33;17.40;99.90
38726;DHT22;24474;48.906;8.808;2023-09-19T01:40:01;17.40;99.90
38726;DHT22;24474;48.906;8.808;2023-09-19T01:42:50;17.40;99.90
38726;DHT22;24474;48.906;8.808;2023-09-19T01:48:14;17.30;99.90
38726;DHT22;24474;48.906;8.808;2023-09-19T01:51:06;17.30;99.90
38726;DHT22;24474;48.906;8.808;2023-09-19T01:54:03;17.30;99.90
38726;DHT22;24474;48.906;8.808;2023-09-19T01:56:42;17.30;99.90
38726;DHT22;24474;48.906;8.808;2023-09-19T01:59:15;17.20;99.90
38726;DHT22;24474;48.906;8.808;2023-09-19T02:01:42;17.30;99.90
38726;DHT22;24474;48.906;8.808;2023-09-19T02:04:11;17.20;99.90
38726;DHT22;24474;48.906;8.808;2023-09-19T02:06:40;17.20;99.90
38726;DHT22;24474;48.906;8.808;2023-09-19T02:09:06;17.20;99.90
38726;DHT22;24474;48.906;8.808;2023-09-19T02:11:33;17.20;99.90
38726;DHT22;24474;48.906;8.808;2023-09-19T02:13:59;17.20;99.90
38726;DHT22;24474;48.906;8.808;2023-09-19T02:16:25;17.20;99.90
38726;DHT22;24474;48.906;8.808;2023-09-19T02:18:51;17.20;99.90
38726;DHT22;24474;48.906;8.808;2023-09-19T02:21:17;17.10;99.90
38726;DHT22;24474;48.906;8.808;2023-09-19T02:23:44;17.20;99.90
38726;DHT22;24474;48.906;8.808;2023-09-19T02:26:10;17.20;99.90
38726;DHT22;24474;48.906;8.808;2023-09-19T02:28:37;17.20;99.90
38726;DHT22;24474;48.906;8.808;2023-09-19T02:31:03;17.20;99.90
38726;DHT22;24474;48.906;8.808;2023-09-19T02:33:31;17.20;99.90
38726;DHT22;24474;48.906;8.808;2023-09-19T02:35:58;17.20;99.90
38726;DHT22;24474;48.906;8.808;2023-09-19T02:38:27;17.20;99.90
38726;DHT22;24474;48.906;8.808;2023-09-19T02:40:55;17.20;99.90
38726;DHT22;24474;48.906;8.808;2023-09-19T02:43:23;17.30;99.90
38726;DHT22;24474;48.906;8.808;2023-09-19T02:45:50;17.30;99.90
38726;DHT22;24474;48.906;8.808;2023-09-19T02:48:19;17.30;99.90
38726;DHT22;24474;48.906;8.808;2023-09-19T02:50:45;17.30;99.90
38726;DHT22;24474;48.906;8.808;2023-09-19T02:53:11;17.30;99.90
38726;DHT22;24474;48.906;8.808;2023-09-19T02:55:42;17.30;99.90
38726;DHT22;24474;48.906;8.808;2023-09-19T02:58:08;17.30;99.90
38726;DHT22;24474;48.906;8.808;2023-09-19T03:00:38;17.30;99.90
38726;DHT22;24474;48.906;8.808;2023-09-19T03:03:03;17.30;99.90
38726;DHT22;24474;48.906;8.808;2023-09-19T03:05:32;17.40;99.90
38726;DHT22;24474;48.906;8.808;2023-09-19T03:07:58;17.30;99.90
38726;DHT22;24474;48.906;8.808;2023-09-19T03:10:27;17.30;99.90
38726;DHT22;24474;48.906;8.808;2023-09-19T03:12:54;17.40;99.90
38726;DHT22;24474;48.906;8.808;2023-09-19T03:15:20;17.40;99.90
38726;DHT22;24474;48.906;8.808;2023-09-19T03:17:48;17.40;99.90
38726;DHT22;24474;48.906;8.808;2023-09-19T03:20:14;17.30;99.90
38726;DHT22;24474;48.906;8.808;2023-09-19T03:22:43;17.40;99.90
38726;DHT22;24474;48.906;8.808;2023-09-19T03:25:09;17.40;99.90
38726;DHT22;24474;48.906;8.808;2023-09-19T03:27:39;17.40;99.90
38726;DHT22;24474;48.906;8.808;2023-09-19T03:30:06;17.40;99.90
38726;DHT22;24474;48.906;8.808;2023-09-19T03:32:43;17.30;99.90
38726;DHT22;24474;48.906;8.808;2023-09-19T03:35:10;17.30;99.90
38726;DHT22;24474;48.906;8.808;2023-09-19T03:37:40;17.40;99.90
38726;DHT22;24474;48.906;8.808;2023-09-19T03:40:06;17.30;99.90
38726;DHT22;24474;48.906;8.808;2023-09-19T03:42:34;17.40;99.90
38726;DHT22;24474;48.906;8.808;2023-09-19T03:45:01;17.40;99.90
38726;DHT22;24474;48.906;8.808;2023-09-19T03:47:31;17.30;99.90
38726;DHT22;24474;48.906;8.808;2023-09-19T03:49:57;17.40;99.90
38726;DHT22;24474;48.906;8.808;2023-09-19T03:52:24;17.40;99.90
38726;DHT22;24474;48.906;8.808;2023-09-19T03:54:50;17.30;99.90
38726;DHT22;24474;48.906;8.808;2023-09-19T03:57:16;17.30;99.90
38726;DHT22;24474;48.906;8.808;2023-09-19T03:59:46;17.30;99.90
38726;DHT22;24474;48.906;8.808;2023-09-19T04:02:13;17.30;99.90
38726;DHT22;24474;48.906;8.808;2023-09-19T04:04:48;17.30;99.90
38726;DHT22;24474;48.906;8.808;2023-09-19T04:07:15;17.30;99.90
38726;DHT22;24474;48.906;8.808;2023-09-19T04:09:40;17.20;99.90
38726;DHT22;24474;48.906;8.808;2023-09-19T04:12:07;17.30;99.90
38726;DHT22;24474;48.906;8.808;2023-09-19T04:14:36;17.30;99.90
38726;DHT22;24474;48.906;8.808;2023-09-19T04:17:02;17.20;99.90
38726;DHT22;24474;48.906;8.808;2023-09-19T04:19:28;17.20;99.90
38726;DHT22;24474;48.906;8.808;2023-09-19T04:21:55;17.20;99.90
38726;DHT22;24474;48.906;8.808;2023-09-19T04:24:24;17.30;99.90
38726;DHT22;24474;48.906;8.808;2023-09-19T04:26:49;17.30;99.90
38726;DHT22;24474;48.906;8.808;2023-09-19T04:29:16;17.30;99.90
38726;DHT22;24474;48.906;8.808;2023-09-19T04:31:45;17.20;99.90
38726;DHT22;24474;48.906;8.808;2023-09-19T04:34:12;17.20;99.90
38726;DHT22;24474;48.906;8.808;2023-09-19T04:36:43;17.20;99.90
38726;DHT22;24474;48.906;8.808;2023-09-19T04:39:10;17.10;99.90
38726;DHT22;24474;48.906;8.808;2023-09-19T04:41:37;17.20;99.90
38726;DHT22;24474;48.906;8.808;2023-09-19T04:44:06;17.10;99.90
38726;DHT22;24474;48.906;8.808;2023-09-19T04:46:33;17.10;99.90
38726;DHT22;24474;48.906;8.808;2023-09-19T04:48:59;17.10;99.90
38726;DHT22;24474;48.906;8.808;2023-09-19T04:51:24;17.10;99.90
38726;DHT22;24474;48.906;8.808;2023-09-19T04:53:52;17.00;99.90
38726;DHT22;24474;48.906;8.808;2023-09-19T04:56:17;17.00;99.90
38726;DHT22;24474;48.906;8.808;2023-09-19T04:58:44;17.00;99.90
38726;DHT22;24474;48.906;8.808;2023-09-19T05:01:11;16.90;99.90
38726;DHT22;24474;48.906;8.808;2023-09-19T05:03:39;17.00;99.90
38726;DHT22;24474;48.906;8.808;2023-09-19T05:06:05;16.90;99.90
38726;DHT22;24474;48.906;8.808;2023-09-19T05:08:32;16.90;99.90
38726;DHT22;24474;48.906;8.808;2023-09-19T05:11:02;16.90;99.90
38726;DHT22;24474;48.906;8.808;2023-09-19T05:13:28;16.80;99.90
38726;DHT22;24474;48.906;8.808;2023-09-19T05:15:59;16.80;99.90
38726;DHT22;24474;48.906;8.808;2023-09-19T05:18:27;16.80;99.90
38726;DHT22;24474;48.906;8.808;2023-09-19T05:20:54;16.80;99.90
38726;DHT22;24474;48.906;8.808;2023-09-19T05:23:20;16.70;99.90
38726;DHT22;24474;48.906;8.808;2023-09-19T05:25:47;16.70;99.90
38726;DHT22;24474;48.906;8.808;2023-09-19T05:28:12;16.70;99.90
38726;DHT22;24474;48.906;8.808;2023-09-19T05:30:40;16.70;99.90
38726;DHT22;24474;48.906;8.808;2023-09-19T05:33:08;16.70;99.90
38726;DHT22;24474;48.906;8.808;2023-09-19T05:35:38;16.60;99.90
38726;DHT22;24474;48.906;8.808;2023-09-19T05:38:05;16.60;99.90
38726;DHT22;24474;48.906;8.808;2023-09-19T05:40:42;16.60;99.90
38726;DHT22;24474;48.906;8.808;2023-09-19T05:43:08;16.50;99.90
38726;DHT22;24474;48.906;8.808;2023-09-19T05:45:34;16.50;99.90
38726;DHT22;24474;48.906;8.808;2023-09-19T05:48:10;16.50;99.90
38726;DHT22;24474;48.906;8.808;2023-09-19T05:50:37;16.50;99.90
38726;DHT22;24474;48.906;8.808;2023-09-19T05:53:04;16.50;99.90
38726;DHT22;24474;48.906;8.808;2023-09-19T05:55:30;16.50;99.90
38726;DHT22;24474;48.906;8.808;2023-09-19T05:57:56;16.50;99.90
38726;DHT22;24474;48.906;8.808;2023-09-19T06:00:29;16.50;99.90
38726;DHT22;24474;48.906;8.808;2023-09-19T06:02:58;16.40;99.90
38726;DHT22;24474;48.906;8.808;2023-09-19T06:05:27;16.50;99.90
38726;DHT22;24474;48.906;8.808;2023-09-19T06:07:53;16.40;99.90
38726;DHT22;24474;48.906;8.808;2023-09-19T06:10:21;16.50;99.90
38726;DHT22;24474;48.906;8.808;2023-09-19T06:12:48;16.50;99.90
38726;DHT22;24474;48.906;8.808;2023-09-19T06:15:15;16.50;99.90
38726;DHT22;24474;48.906;8.808;2023-09-19T06:17:54;16.50;99.90
38726;DHT22;24474;48.906;8.808;2023-09-19T06:20:25;16.50;99.90
38726;DHT22;24474;48.906;8.808;2023-09-19T06:22:53;16.50;99.90
38726;DHT22;24474;48.906;8.808;2023-09-19T06:25:23;16.50;99.90
38726;DHT22;24474;48.906;8.808;2023-09-19T06:27:54;16.50;99.90
38726;DHT22;24474;48.906;8.808;2023-09-19T06:30:22;16.50;99.90
38726;DHT22;24474;48.906;8.808;2023-09-19T06:33:07;16.50;99.90
38726;DHT22;24474;48.906;8.808;2023-09-19T06:35:35;16.50;99.90
38726;DHT22;24474;48.906;8.808;2023-09-19T06:38:11;16.50;99.90
38726;DHT22;24474;48.906;8.808;2023-09-19T06:40:39;16.50;99.90
38726;DHT22;24474;48.906;8.808;2023-09-19T06:43:06;16.40;99.90
38726;DHT22;24474;48.906;8.808;2023-09-19T06:45:32;16.40;99.90
38726;DHT22;24474;48.906;8.808;2023-09-19T06:48:00;16.50;99.90
38726;DHT22;24474;48.906;8.808;2023-09-19T06:50:29;16.50;99.90
38726;DHT22;24474;48.906;8.808;2023-09-19T06:52:59;16.50;99.90
38726;DHT22;24474;48.906;8.808;2023-09-19T06:55:26;16.50;99.90
38726;DHT22;24474;48.906;8.808;2023-09-19T06:57:57;16.50;99.90
38726;DHT22;24474;48.906;8.808;2023-09-19T07:00:23;16.50;99.90
38726;DHT22;24474;48.906;8.808;2023-09-19T07:03:03;16.50;99.90
38726;DHT22;24474;48.906;8.808;2023-09-19T07:05:33;16.50;99.90
38726;DHT22;24474;48.906;8.808;2023-09-19T07:08:12;16.50;99.90
38726;DHT22;24474;48.906;8.808;2023-09-19T07:10:40;16.40;99.90
38726;DHT22;24474;48.906;8.808;2023-09-19T07:13:11;16.50;99.90
38726;DHT22;24474;48.906;8.808;2023-09-19T07:15:39;16.50;99.90
38726;DHT22;24474;48.906;8.808;2023-09-19T07:18:08;16.50;99.90
38726;DHT22;24474;48.906;8.808;2023-09-19T07:20:36;16.50;99.90
38726;DHT22;24474;48.906;8.808;2023-09-19T07:23:02;16.50;99.90
38726;DHT22;24474;48.906;8.808;2023-09-19T07:25:29;16.60;99.90
38726;DHT22;24474;48.906;8.808;2023-09-19T07:27:56;16.60;99.90
38726;DHT22;24474;48.906;8.808;2023-09-19T07:30:25;16.60;99.90
38726;DHT22;24474;48.906;8.808;2023-09-19T07:32:52;16.50;99.90
38726;DHT22;24474;48.906;8.808;2023-09-19T07:35:19;16.60;99.90
38726;DHT22;24474;48.906;8.808;2023-09-19T07:37:49;16.60;99.90
38726;DHT22;24474;48.906;8.808;2023-09-19T07:40:15;16.60;99.90
38726;DHT22;24474;48.906;8.808;2023-09-19T07:42:41;16.50;99.90
38726;DHT22;24474;48.906;8.808;2023-09-19T07:45:11;16.50;99.90
38726;DHT22;24474;48.906;8.808;2023-09-19T07:48:00;16.60;99.90
38726;DHT22;24474;48.906;8.808;2023-09-19T07:50:30;16.60;99.90
38726;DHT22;24474;48.906;8.808;2023-09-19T07:52:57;16.70;99.90
38726;DHT22;24474;48.906;8.808;2023-09-19T07:55:24;16.70;99.90
38726;DHT22;24474;48.906;8.808;2023-09-19T07:57:51;16.80;99.90
38726;DHT22;24474;48.906;8.808;2023-09-19T08:00:18;16.70;99.90
38726;DHT22;24474;48.906;8.808;2023-09-19T08:02:44;16.80;99.90
38726;DHT22;24474;48.906;8.808;2023-09-19T08:05:11;16.90;99.90
38726;DHT22;24474;48.906;8.808;2023-09-19T08:07:39;16.90;99.90
38726;DHT22;24474;48.906;8.808;2023-09-19T08:10:05;16.90;99.90
38726;DHT22;24474;48.906;8.808;2023-09-19T08:12:37;17.00;99.90
38726;DHT22;24474;48.906;8.808;2023-09-19T08:15:06;17.00;99.90
38726;DHT22;24474;48.906;8.808;2023-09-19T08:17:36;17.00;99.90
38726;DHT22;24474;48.906;8.808;2023-09-19T08:20:02;17.10;99.90
38726;DHT22;24474;48.906;8.808;2023-09-19T08:22:30;17.10;99.90
38726;DHT22;24474;48.906;8.808;2023-09-19T08:24:57;17.20;99.90
38726;DHT22;24474;48.906;8.808;2023-09-19T08:27:24;17.20;99.90
38726;DHT22;24474;48.906;8.808;2023-09-19T08:29:54;17.20;99.90
38726;DHT22;24474;48.906;8.808;2023-09-19T08:32:19;17.30;99.90
38726;DHT22;24474;48.906;8.808;2023-09-19T08:34:52;17.40;99.90
38726;DHT22;24474;48.906;8.808;2023-09-19T08:37:21;17.40;99.90
38726;DHT22;24474;48.906;8.808;2023-09-19T08:39:46;17.50;99.90
38726;DHT22;24474;48.906;8.808;2023-09-19T08:42:12;17.60;99.90
38726;DHT22;24474;48.906;8.808;2023-09-19T08:44:40;17.60;99.90
38726;DHT22;24474;48.906;8.808;2023-09-19T08:47:12;17.70;99.90
38726;DHT22;24474;48.906;8.808;2023-09-19T08:50:01;17.80;99.90
38726;DHT22;24474;48.906;8.808;2023-09-19T08:52:34;17.90;99.90
38726;DHT22;24474;48.906;8.808;2023-09-19T08:55:02;18.00;99.90
38726;DHT22;24474;48.906;8.808;2023-09-19T08:57:36;18.10;99.90
38726;DHT22;24474;48.906;8.808;2023-09-19T09:00:08;18.10;99.90
38726;DHT22;24474;48.906;8.808;2023-09-19T09:02:41;18.10;99.90
38726;DHT22;24474;48.906;8.808;2023-09-19T09:05:09;18.10;99.90
38726;DHT22;24474;48.906;8.808;2023-09-19T09:07:47;18.10;99.90
38726;DHT22;24474;48.906;8.808;2023-09-19T09:10:14;18.10;99.90
38726;DHT22;24474;48.906;8.808;2023-09-19T09:12:41;18.20;99.90
38726;DHT22;24474;48.906;8.808;2023-09-19T09:15:09;18.10;99.90
38726;DHT22;24474;48.906;8.808;2023-09-19T09:17:37;18.20;99.90
38726;DHT22;24474;48.906;8.808;2023-09-19T09:20:04;18.20;99.90
38726;DHT22;24474;48.906;8.808;2023-09-19T09:22:50;18.20;99.90
38726;DHT22;24474;48.906;8.808;2023-09-19T09:25:16;18.20;99.90
38726;DHT22;24474;48.906;8.808;2023-09-19T09:27:46;18.20;99.90
38726;DHT22;24474;48.906;8.808;2023-09-19T09:30:37;18.30;99.90
38726;DHT22;24474;48.906;8.808;2023-09-19T09:33:13;18.20;99.90
38726;DHT22;24474;48.906;8.808;2023-09-19T09:35:59;18.20;99.90
38726;DHT22;24474;48.906;8.808;2023-09-19T09:38:46;18.20;99.90
38726;DHT22;24474;48.906;8.808;2023-09-19T09:41:16;18.30;99.90
38726;DHT22;24474;48.906;8.808;2023-09-19T09:43:56;18.20;99.90
38726;DHT22;24474;48.906;8.808;2023-09-19T09:46:24;18.30;99.90
38726;DHT22;24474;48.906;8.808;2023-09-19T09:49:04;18.20;99.90
38726;DHT22;24474;48.906;8.808;2023-09-19T09:51:50;18.20;99.90
38726;DHT22;24474;48.906;8.808;2023-09-19T09:54:29;18.30;99.90
38726;DHT22;24474;48.906;8.808;2023-09-19T09:57:14;18.40;99.90
38726;DHT22;24474;48.906;8.808;2023-09-19T09:59:53;18.40;99.90
38726;DHT22;24474;48.906;8.808;2023-09-19T10:04:56;18.60;99.90
38726;DHT22;24474;48.906;8.808;2023-09-19T10:07:32;18.70;99.90
38726;DHT22;24474;48.906;8.808;2023-09-19T10:10:07;18.70;99.90
38726;DHT22;24474;48.906;8.808;2023-09-19T10:12:46;18.70;99.90
38726;DHT22;24474;48.906;8.808;2023-09-19T10:15:18;18.60;99.90
38726;DHT22;24474;48.906;8.808;2023-09-19T10:17:47;18.60;99.90
38726;DHT22;24474;48.906;8.808;2023-09-19T10:20:14;18.60;99.90
38726;DHT22;24474;48.906;8.808;2023-09-19T10:23:07;18.50;99.90
38726;DHT22;24474;48.906;8.808;2023-09-19T10:25:39;18.50;99.90
38726;DHT22;24474;48.906;8.808;2023-09-19T10:28:08;18.60;99.90
38726;DHT22;24474;48.906;8.808;2023-09-19T10:30:38;18.60;99.90
38726;DHT22;24474;48.906;8.808;2023-09-19T10:33:14;18.70;99.90
38726;DHT22;24474;48.906;8.808;2023-09-19T10:35:46;18.70;99.90
38726;DHT22;24474;48.906;8.808;2023-09-19T10:38:14;18.70;99.90
38726;DHT22;24474;48.906;8.808;2023-09-19T10:40:49;18.70;99.90
38726;DHT22;24474;48.906;8.808;2023-09-19T10:43:16;18.70;99.90
38726;DHT22;24474;48.906;8.808;2023-09-19T10:45:47;18.70;99.90
38726;DHT22;24474;48.906;8.808;2023-09-19T10:48:16;18.60;99.90
38726;DHT22;24474;48.906;8.808;2023-09-19T10:51:15;18.60;99.90
38726;DHT22;24474;48.906;8.808;2023-09-19T10:56:17;18.60;99.90
38726;DHT22;24474;48.906;8.808;2023-09-19T10:58:44;18.60;99.90
38726;DHT22;24474;48.906;8.808;2023-09-19T11:01:12;18.70;99.90
38726;DHT22;24474;48.906;8.808;2023-09-19T11:03:44;18.80;99.90
38726;DHT22;24474;48.906;8.808;2023-09-19T11:06:14;18.90;99.90
38726;DHT22;24474;48.906;8.808;2023-09-19T11:09:04;19.00;99.90
38726;DHT22;24474;48.906;8.808;2023-09-19T11:11:51;19.20;99.90
38726;DHT22;24474;48.906;8.808;2023-09-19T11:30:50;19.80;99.90
38726;DHT22;24474;48.906;8.808;2023-09-19T11:33:30;19.80;99.90
38726;DHT22;24474;48.906;8.808;2023-09-19T11:46:30;20.10;99.90
38726;DHT22;24474;48.906;8.808;2023-09-19T11:49:09;20.00;99.90
38726;DHT22;24474;48.906;8.808;2023-09-19T11:51:43;20.10;99.90
38726;DHT22;24474;48.906;8.808;2023-09-19T11:54:11;20.10;99.90
38726;DHT22;24474;48.906;8.808;2023-09-19T11:56:57;20.10;99.90
38726;DHT22;24474;48.906;8.808;2023-09-19T11:59:29;20.20;99.90
38726;DHT22;24474;48.906;8.808;2023-09-19T12:02:06;20.20;99.90
38726;DHT22;24474;48.906;8.808;2023-09-19T12:07:14;20.20;99.90
38726;DHT22;24474;48.906;8.808;2023-09-19T12:10:06;20.20;99.90
38726;DHT22;24474;48.906;8.808;2023-09-19T12:12:34;20.20;99.90
38726;DHT22;24474;48.906;8.808;2023-09-19T12:14:59;20.20;99.90
38726;DHT22;24474;48.906;8.808;2023-09-19T12:17:38;20.30;99.90
38726;DHT22;24474;48.906;8.808;2023-09-19T12:20:06;20.30;99.90
38726;DHT22;24474;48.906;8.808;2023-09-19T12:22:48;20.20;99.90
38726;DHT22;24474;48.906;8.808;2023-09-19T12:25:14;20.20;99.90
38726;DHT22;24474;48.906;8.808;2023-09-19T12:27:44;20.10;99.90
38726;DHT22;24474;48.906;8.808;2023-09-19T12:30:14;20.10;99.90
38726;DHT22;24474;48.906;8.808;2023-09-19T12:32:43;20.00;99.90
38726;DHT22;24474;48.906;8.808;2023-09-19T12:35:09;20.00;99.90
38726;DHT22;24474;48.906;8.808;2023-09-19T12:37:51;19.90;99.90
38726;DHT22;24474;48.906;8.808;2023-09-19T12:40:21;19.90;99.90
38726;DHT22;24474;48.906;8.808;2023-09-19T12:42:55;19.90;99.90
38726;DHT22;24474;48.906;8.808;2023-09-19T12:45:21;19.90;99.90
38726;DHT22;24474;48.906;8.808;2023-09-19T12:48:22;19.90;99.90
38726;DHT22;24474;48.906;8.808;2023-09-19T12:51:09;19.90;99.90
38726;DHT22;24474;48.906;8.808;2023-09-19T12:53:42;19.90;99.90
38726;DHT22;24474;48.906;8.808;2023-09-19T12:56:13;19.90;99.90
38726;DHT22;24474;48.906;8.808;2023-09-19T13:01:29;19.90;99.90
38726;DHT22;24474;48.906;8.808;2023-09-19T13:04:17;20.00;99.90
38726;DHT22;24474;48.906;8.808;2023-09-19T13:06:53;20.00;99.90
38726;DHT22;24474;48.906;8.808;2023-09-19T13:09:26;20.00;99.90
38726;DHT22;24474;48.906;8.808;2023-09-19T13:12:39;20.00;99.90
38726;DHT22;24474;48.906;8.808;2023-09-19T13:15:12;20.10;99.90
38726;DHT22;24474;48.906;8.808;2023-09-19T13:18:11;20.10;99.90
38726;DHT22;24474;48.906;8.808;2023-09-19T13:20:40;20.20;99.90
38726;DHT22;24474;48.906;8.808;2023-09-19T13:23:28;20.30;99.90
38726;DHT22;24474;48.906;8.808;2023-09-19T13:25:53;20.30;99.90
38726;DHT22;24474;48.906;8.808;2023-09-19T13:28:21;20.40;99.90
38726;DHT22;24474;48.906;8.808;2023-09-19T13:30:48;20.50;99.80
38726;DHT22;24474;48.906;8.808;2023-09-19T13:33:13;20.60;99.50
38726;DHT22;24474;48.906;8.808;2023-09-19T13:35:46;20.60;98.80
38726;DHT22;24474;48.906;8.808;2023-09-19T13:38:14;20.70;99.20
38726;DHT22;24474;48.906;8.808;2023-09-19T13:40:43;20.70;99.30
38726;DHT22;24474;48.906;8.808;2023-09-19T13:43:08;20.80;98.80
38726;DHT22;24474;48.906;8.808;2023-09-19T13:45:35;20.80;98.30
38726;DHT22;24474;48.906;8.808;2023-09-19T13:48:04;20.90;98.10
38726;DHT22;24474;48.906;8.808;2023-09-19T13:50:30;20.90;98.60
38726;DHT22;24474;48.906;8.808;2023-09-19T13:52:57;20.90;98.30
38726;DHT22;24474;48.906;8.808;2023-09-19T13:55:27;20.90;98.50
38726;DHT22;24474;48.906;8.808;2023-09-19T13:57:53;21.00;98.50
38726;DHT22;24474;48.906;8.808;2023-09-19T14:00:20;21.00;98.30
38726;DHT22;24474;48.906;8.808;2023-09-19T14:02:48;21.00;98.70
38726;DHT22;24474;48.906;8.808;2023-09-19T14:05:18;21.00;98.30
38726;DHT22;24474;48.906;8.808;2023-09-19T14:07:44;20.90;97.50
38726;DHT22;24474;48.906;8.808;2023-09-19T14:10:11;20.90;97.30
38726;DHT22;24474;48.906;8.808;2023-09-19T14:12:40;21.00;97.60
38726;DHT22;24474;48.906;8.808;2023-09-19T14:15:09;21.00;97.40
38726;DHT22;24474;48.906;8.808;2023-09-19T14:17:34;21.10;98.00
38726;DHT22;24474;48.906;8.808;2023-09-19T14:20:03;21.00;97.50
38726;DHT22;24474;48.906;8.808;2023-09-19T14:22:31;21.10;97.40
38726;DHT22;24474;48.906;8.808;2023-09-19T14:24:57;21.10;97.60
38726;DHT22;24474;48.906;8.808;2023-09-19T14:27:25;21.10;97.20
38726;DHT22;24474;48.906;8.808;2023-09-19T14:29:57;21.10;96.90
38726;DHT22;24474;48.906;8.808;2023-09-19T14:32:24;21.10;97.10
38726;DHT22;24474;48.906;8.808;2023-09-19T14:34:55;21.20;97.00
38726;DHT22;24474;48.906;8.808;2023-09-19T14:37:20;21.30;96.90
38726;DHT22;24474;48.906;8.808;2023-09-19T14:39:50;21.30;97.00
38726;DHT22;24474;48.906;8.808;2023-09-19T14:42:17;21.40;96.70
38726;DHT22;24474;48.906;8.808;2023-09-19T14:44:43;21.30;96.20
38726;DHT22;24474;48.906;8.808;2023-09-19T14:47:09;21.30;97.10
38726;DHT22;24474;48.906;8.808;2023-09-19T14:49:41;21.30;97.20
38726;DHT22;24474;48.906;8.808;2023-09-19T14:52:08;21.30;97.50
38726;DHT22;24474;48.906;8.808;2023-09-19T14:54:34;21.30;97.50
38726;DHT22;24474;48.906;8.808;2023-09-19T14:57:00;21.30;97.90
38726;DHT22;24474;48.906;8.808;2023-09-19T14:59:35;21.30;97.30
38726;DHT22;24474;48.906;8.808;2023-09-19T15:02:05;21.40;97.10
38726;DHT22;24474;48.906;8.808;2023-09-19T15:04:33;21.40;96.90
38726;DHT22;24474;48.906;8.808;2023-09-19T15:06:59;21.40;97.20
38726;DHT22;24474;48.906;8.808;2023-09-19T15:09:26;21.30;97.00
38726;DHT22;24474;48.906;8.808;2023-09-19T15:11:53;21.30;97.60
38726;DHT22;24474;48.906;8.808;2023-09-19T15:14:20;21.30;97.40
38726;DHT22;24474;48.906;8.808;2023-09-19T15:16:46;21.30;98.30
38726;DHT22;24474;48.906;8.808;2023-09-19T15:19:14;21.30;97.80
38726;DHT22;24474;48.906;8.808;2023-09-19T15:21:41;21.30;97.20
38726;DHT22;24474;48.906;8.808;2023-09-19T15:24:10;21.20;97.10
38726;DHT22;24474;48.906;8.808;2023-09-19T15:26:36;21.20;97.00
38726;DHT22;24474;48.906;8.808;2023-09-19T15:29:09;21.20;97.10
38726;DHT22;24474;48.906;8.808;2023-09-19T15:31:36;21.20;97.10
38726;DHT22;24474;48.906;8.808;2023-09-19T15:34:03;21.10;97.20
38726;DHT22;24474;48.906;8.808;2023-09-19T15:36:29;21.10;97.10
38726;DHT22;24474;48.906;8.808;2023-09-19T15:41:34;21.00;97.00
38726;DHT22;24474;48.906;8.808;2023-09-19T15:44:02;21.00;97.20
38726;DHT22;24474;48.906;8.808;2023-09-19T15:46:33;21.00;97.80
38726;DHT22;24474;48.906;8.808;2023-09-19T15:49:02;21.00;97.50
38726;DHT22;24474;48.906;8.808;2023-09-19T15:51:28;21.00;97.50
38726;DHT22;24474;48.906;8.808;2023-09-19T15:53:55;21.00;97.50
38726;DHT22;24474;48.906;8.808;2023-09-19T15:56:25;21.00;98.00
38726;DHT22;24474;48.906;8.808;2023-09-19T15:58:53;21.00;97.70
38726;DHT22;24474;48.906;8.808;2023-09-19T16:01:20;21.00;98.00
38726;DHT22;24474;48.906;8.808;2023-09-19T16:03:51;20.90;97.50
38726;DHT22;24474;48.906;8.808;2023-09-19T16:06:25;20.90;97.70
38726;DHT22;24474;48.906;8.808;2023-09-19T16:08:53;20.90;98.20
38726;DHT22;24474;48.906;8.808;2023-09-19T16:11:21;20.90;97.80
38726;DHT22;24474;48.906;8.808;2023-09-19T16:13:48;20.90;98.10
38726;DHT22;24474;48.906;8.808;2023-09-19T16:16:16;20.90;98.20
38726;DHT22;24474;48.906;8.808;2023-09-19T16:19:01;20.90;98.40
38726;DHT22;24474;48.906;8.808;2023-09-19T16:21:29;20.90;98.50
38726;DHT22;24474;48.906;8.808;2023-09-19T16:23:56;20.80;98.50
38726;DHT22;24474;48.906;8.808;2023-09-19T16:26:24;20.80;98.50
38726;DHT22;24474;48.906;8.808;2023-09-19T16:28:52;20.80;98.60
38726;DHT22;24474;48.906;8.808;2023-09-19T16:31:18;20.80;98.60
38726;DHT22;24474;48.906;8.808;2023-09-19T16:33:46;20.80;98.70
38726;DHT22;24474;48.906;8.808;2023-09-19T16:36:16;20.80;99.00
38726;DHT22;24474;48.906;8.808;2023-09-19T16:38:43;20.70;98.70
38726;DHT22;24474;48.906;8.808;2023-09-19T16:41:10;20.80;98.70
38726;DHT22;24474;48.906;8.808;2023-09-19T16:43:37;20.70;99.00
38726;DHT22;24474;48.906;8.808;2023-09-19T16:46:05;20.70;99.40
38726;DHT22;24474;48.906;8.808;2023-09-19T16:48:34;20.60;99.80